Garden City, New York
Current Conditions -  °F | °C
As of 7:51 PM on Sunday 21 Dec 2014 (Local Time) from KJFK Reporting Station
Overcast Overcast  
Wind Chill: 30°   Ceiling: 3600
Heat Index: 36°   Visibility: 10mi
Dew Point: 30°   Wind: 8mph
Humidity: 79%   Direction: 360°N
Pressure: 30.35"   Gusts: NA
Location:  40.73°N, 73.64°W
Report Text: KJFK 220051Z 36007KT 10SM FEW012 SCT022 OVC036 02/M01 A3035 RMK AO2 SLP276 T00221011 $
Loading
Personal Weather Stations






























Interactive Weather Map New forecast layout! Learn more

10-Day Weather Forecast

Advertisements
Track Severe Weather on mobile